createdAt,value
2018-03-15T00:01:08.974Z,8.94
2018-03-15T00:03:36.554Z,8.98
2018-03-15T00:06:04.150Z,9.03
2018-03-15T00:08:31.781Z,8.99
2018-03-15T00:10:59.508Z,8.99
2018-03-15T00:13:27.328Z,8.93
2018-03-15T00:15:54.886Z,8.93
2018-03-15T00:18:22.442Z,8.90
2018-03-15T00:20:50.007Z,8.82
2018-03-15T00:23:17.569Z,8.85
2018-03-15T00:25:45.133Z,8.86
2018-03-15T00:28:12.897Z,8.81
2018-03-15T00:30:40.482Z,8.77
2018-03-15T00:33:08.055Z,8.78
2018-03-15T00:35:35.679Z,8.79
2018-03-15T00:38:03.246Z,8.77
2018-03-15T00:40:30.813Z,8.83
2018-03-15T00:42:58.542Z,8.89
2018-03-15T00:45:26.101Z,8.85
2018-03-15T00:47:53.876Z,8.84
2018-03-15T00:50:21.595Z,8.83
2018-03-15T00:52:49.410Z,8.83
2018-03-15T00:55:16.981Z,8.86
2018-03-15T00:57:44.750Z,8.81
2018-03-15T01:00:12.452Z,8.84
2018-03-15T01:02:40.198Z,8.85
2018-03-15T01:05:08.006Z,8.89
2018-03-15T01:07:35.564Z,8.94
2018-03-15T01:10:03.179Z,8.95
2018-03-15T01:12:30.951Z,9.02
2018-03-15T01:14:58.523Z,9.06
2018-03-15T01:17:26.070Z,9.06
2018-03-15T01:19:53.814Z,9.14
2018-03-15T01:22:21.362Z,9.12
2018-03-15T01:24:49.122Z,9.12
2018-03-15T01:27:16.715Z,9.17
2018-03-15T01:29:44.278Z,9.16
2018-03-15T01:32:11.841Z,9.10
2018-03-15T01:34:39.626Z,9.12
2018-03-15T01:37:07.185Z,9.10
2018-03-15T01:39:34.838Z,9.02
2018-03-15T01:42:02.406Z,9.01
2018-03-15T01:44:29.965Z,9.02
2018-03-15T01:46:57.539Z,8.96
2018-03-15T01:49:25.106Z,8.98
2018-03-15T01:51:52.737Z,8.96
2018-03-15T01:54:20.464Z,8.89
2018-03-15T01:56:48.032Z,8.86
2018-03-15T01:59:15.799Z,8.80
2018-03-15T02:01:43.409Z,8.72
2018-03-15T02:04:10.974Z,8.70
2018-03-15T02:06:38.754Z,8.63
2018-03-15T02:09:06.327Z,8.63
2018-03-15T02:11:33.886Z,8.58
2018-03-15T02:14:01.613Z,8.68
2018-03-15T02:16:29.171Z,8.62
2018-03-15T02:18:56.722Z,8.61
2018-03-15T02:21:24.424Z,8.58
2018-03-15T02:23:52.012Z,8.58
2018-03-15T02:26:19.797Z,8.60
2018-03-15T02:28:47.357Z,8.62
2018-03-15T02:31:14.915Z,8.69
2018-03-15T02:33:42.465Z,8.70
2018-03-15T02:36:10.046Z,8.74
2018-03-15T02:38:37.610Z,8.73
2018-03-15T02:41:05.167Z,8.76
2018-03-15T02:43:32.742Z,8.76
2018-03-15T02:46:00.310Z,8.77
2018-03-15T02:48:28.266Z,8.73
2018-03-15T02:50:56.078Z,8.65
2018-03-15T02:53:23.637Z,8.60
2018-03-15T02:55:51.188Z,8.65
2018-03-15T02:58:18.820Z,8.64
2018-03-15T03:00:46.549Z,8.59
2018-03-15T03:03:14.102Z,8.65
2018-03-15T03:05:41.672Z,8.65
2018-03-15T03:08:09.232Z,8.60
2018-03-15T03:10:36.828Z,8.65
2018-03-15T03:13:04.389Z,8.67
2018-03-15T03:15:32.156Z,8.69
2018-03-15T03:17:59.873Z,8.74
2018-03-15T03:20:27.486Z,8.75
2018-03-15T03:22:55.104Z,8.74
2018-03-15T03:25:22.662Z,8.77
2018-03-15T03:27:50.226Z,8.74
2018-03-15T03:30:17.783Z,8.71
2018-03-15T03:32:45.581Z,8.67
2018-03-15T03:35:13.400Z,8.65
2018-03-15T03:37:40.963Z,8.68
2018-03-15T03:40:08.800Z,8.69
2018-03-15T03:42:36.656Z,8.70
2018-03-15T03:45:04.433Z,8.69
2018-03-15T03:47:32.149Z,8.65
2018-03-15T03:49:59.707Z,8.58
2018-03-15T03:52:27.307Z,8.54
2018-03-15T03:54:54.869Z,8.48
2018-03-15T03:57:22.663Z,8.48
2018-03-15T03:59:50.482Z,8.46
2018-03-15T04:02:18.218Z,8.47
2018-03-15T04:04:45.822Z,8.43
2018-03-15T04:07:13.637Z,8.36
2018-03-15T04:09:41.190Z,8.28
2018-03-15T04:12:08.755Z,8.29
2018-03-15T04:14:36.315Z,8.29
2018-03-15T04:17:03.895Z,8.27
2018-03-15T04:19:31.450Z,8.32
2018-03-15T04:21:59.038Z,8.25
2018-03-15T04:24:26.603Z,8.21
2018-03-15T04:26:54.480Z,8.23
2018-03-15T04:29:22.179Z,8.25
2018-03-15T04:31:49.742Z,8.30
2018-03-15T04:34:17.533Z,8.34
2018-03-15T04:36:45.100Z,8.37
2018-03-15T04:39:12.678Z,8.42
2018-03-15T04:41:40.270Z,8.38
2018-03-15T04:44:08.006Z,8.39
2018-03-15T04:46:35.724Z,8.40
2018-03-15T04:49:03.353Z,8.39
2018-03-15T04:51:31.161Z,8.42
2018-03-15T04:53:58.714Z,8.44
2018-03-15T04:56:26.281Z,8.54
2018-03-15T04:58:53.995Z,8.61
2018-03-15T05:01:21.564Z,8.70
2018-03-15T05:03:49.353Z,8.80
2018-03-15T05:06:16.946Z,8.90
2018-03-15T05:08:44.510Z,9.03
2018-03-15T05:11:12.304Z,9.13
2018-03-15T05:13:39.867Z,9.21
2018-03-15T05:16:07.644Z,9.27
2018-03-15T05:18:35.222Z,9.28
2018-03-15T05:21:02.976Z,9.24
2018-03-15T05:23:30.542Z,9.21
2018-03-15T05:25:58.109Z,9.20
2018-03-15T05:28:25.931Z,9.26
2018-03-15T05:30:53.748Z,9.33
2018-03-15T05:33:21.568Z,9.44
2018-03-15T05:35:49.299Z,9.57
2018-03-15T05:38:17.105Z,9.68
2018-03-15T05:40:44.834Z,9.77
2018-03-15T05:43:12.658Z,9.84
2018-03-15T05:45:40.462Z,9.86
2018-03-15T05:48:08.021Z,9.98
2018-03-15T05:50:35.591Z,10.14
2018-03-15T05:53:03.417Z,10.24
2018-03-15T05:55:30.990Z,10.38
2018-03-15T05:57:58.586Z,10.48
2018-03-15T06:00:26.291Z,10.64
2018-03-15T06:02:53.879Z,10.83
2018-03-15T06:05:21.496Z,10.96
2018-03-15T06:07:49.185Z,11.14
2018-03-15T06:10:16.902Z,11.24
2018-03-15T06:12:44.618Z,11.37
2018-03-15T06:15:12.377Z,11.52
2018-03-15T06:17:40.195Z,11.94
2018-03-15T06:20:08.014Z,13.19
2018-03-15T06:22:35.832Z,14.73
2018-03-15T06:25:03.393Z,15.61
2018-03-15T06:27:31.174Z,15.68
2018-03-15T06:29:58.738Z,15.55
2018-03-15T06:32:26.315Z,15.57
2018-03-15T06:34:54.118Z,16.40
2018-03-15T06:37:21.703Z,17.25
2018-03-15T06:39:49.503Z,18.00
2018-03-15T06:42:17.273Z,17.87
2018-03-15T06:44:44.850Z,17.37
2018-03-15T06:47:12.414Z,16.64
2018-03-15T06:49:40.024Z,15.34
2018-03-15T06:52:07.900Z,15.45
2018-03-15T06:54:35.466Z,15.64
2018-03-15T06:57:03.026Z,15.95
2018-03-15T06:59:30.606Z,16.01
2018-03-15T07:01:58.421Z,15.94
2018-03-15T07:04:25.985Z,15.53
2018-03-15T07:06:54.408Z,14.99
2018-03-15T07:09:22.092Z,14.64
2018-03-15T07:11:49.897Z,15.26
2018-03-15T07:14:17.605Z,17.07
2018-03-15T07:16:45.434Z,18.06
2018-03-15T07:19:13.083Z,17.79
2018-03-15T07:21:40.869Z,18.02
2018-03-15T07:24:08.450Z,18.11
2018-03-15T07:26:36.206Z,18.18
2018-03-15T07:29:03.797Z,18.94
2018-03-15T07:31:31.542Z,19.57
2018-03-15T07:33:59.264Z,19.61
2018-03-15T07:36:26.996Z,19.77
2018-03-15T07:38:54.710Z,19.61
2018-03-15T07:41:22.327Z,20.19
2018-03-15T07:43:50.134Z,19.44
2018-03-15T07:46:17.952Z,18.45
2018-03-15T07:48:45.551Z,18.54
2018-03-15T07:51:13.288Z,18.84
2018-03-15T07:53:40.858Z,19.43
2018-03-15T07:56:08.516Z,20.27
2018-03-15T07:58:36.343Z,19.93
2018-03-15T08:01:03.902Z,18.80
2018-03-15T08:03:31.679Z,18.24
2018-03-15T08:05:59.497Z,18.86
2018-03-15T08:08:27.107Z,20.27
2018-03-15T08:10:54.694Z,21.24
2018-03-15T08:13:22.344Z,21.22
2018-03-15T08:15:49.962Z,20.56
2018-03-15T08:18:17.523Z,20.71
2018-03-15T08:20:45.099Z,21.41
2018-03-15T08:23:12.856Z,20.88
2018-03-15T08:25:40.641Z,20.72
2018-03-15T08:28:08.210Z,21.13
2018-03-15T08:30:35.984Z,21.28
2018-03-15T08:33:03.800Z,21.39
2018-03-15T08:35:31.368Z,20.86
2018-03-15T08:37:59.001Z,21.85
2018-03-15T08:40:26.609Z,20.27
2018-03-15T08:42:54.178Z,19.83
2018-03-15T08:45:21.986Z,19.33
2018-03-15T08:47:49.550Z,19.11
2018-03-15T08:50:17.322Z,19.09
2018-03-15T08:52:44.892Z,18.45
2018-03-15T08:55:12.470Z,18.55
2018-03-15T08:57:40.095Z,19.06
2018-03-15T09:00:07.754Z,19.79
2018-03-15T09:02:35.314Z,19.53
2018-03-15T09:05:03.130Z,19.69
2018-03-15T09:07:30.686Z,20.33
2018-03-15T09:09:58.248Z,20.08
2018-03-15T09:12:25.847Z,20.51
2018-03-15T09:14:53.419Z,20.82
2018-03-15T09:17:21.221Z,21.00
2018-03-15T09:19:48.769Z,20.82
2018-03-15T09:22:16.556Z,20.65
2018-03-15T09:24:44.105Z,20.73
2018-03-15T09:27:11.674Z,20.34
2018-03-15T09:29:39.238Z,20.25
2018-03-15T09:32:06.850Z,19.94
2018-03-15T09:34:34.475Z,20.04
2018-03-15T09:37:02.159Z,19.84
2018-03-15T09:39:29.755Z,20.07
2018-03-15T09:41:57.380Z,20.51
2018-03-15T09:44:25.225Z,20.37
2018-03-15T09:46:52.817Z,20.17
2018-03-15T09:49:20.410Z,20.56
2018-03-15T09:51:48.002Z,20.52
2018-03-15T09:54:15.592Z,20.13
2018-03-15T09:56:43.409Z,20.34
2018-03-15T09:59:11.167Z,21.03
2018-03-15T10:01:38.859Z,21.23
2018-03-15T10:04:06.472Z,22.30
2018-03-15T10:06:34.385Z,22.70
2018-03-15T10:09:02.086Z,22.79
2018-03-15T10:11:29.817Z,22.43
2018-03-15T10:13:57.547Z,21.89
2018-03-15T10:16:25.191Z,22.08
2018-03-15T10:18:52.758Z,21.12
2018-03-15T10:21:20.345Z,20.97
2018-03-15T10:23:48.108Z,21.24
2018-03-15T10:26:15.702Z,21.38
2018-03-15T10:28:43.545Z,21.23
2018-03-15T10:31:11.253Z,21.41
2018-03-15T10:33:38.873Z,22.19
2018-03-15T10:36:06.701Z,22.95
2018-03-15T10:38:34.618Z,23.62
2018-03-15T10:41:02.224Z,23.13
2018-03-15T10:43:29.810Z,23.09
2018-03-15T10:45:57.464Z,21.76
2018-03-15T10:48:25.050Z,21.49
2018-03-15T10:50:52.807Z,21.86
2018-03-15T10:53:20.627Z,21.43
2018-03-15T10:55:48.435Z,20.34
2018-03-15T10:58:16.021Z,21.22
2018-03-15T11:00:49.150Z,22.08
2018-03-15T11:03:17.477Z,23.34
2018-03-15T11:05:46.690Z,23.63
2018-03-15T11:08:20.082Z,22.61
2018-03-15T11:10:47.732Z,22.41
2018-03-15T11:13:15.398Z,22.38
2018-03-15T11:15:43.014Z,22.35
2018-03-15T11:18:10.600Z,22.33
2018-03-15T11:20:38.177Z,22.65
2018-03-15T11:23:05.766Z,22.21
2018-03-15T11:25:33.607Z,21.21
2018-03-15T11:28:01.230Z,20.44
2018-03-15T11:30:28.836Z,20.80
2018-03-15T11:32:56.434Z,21.04
2018-03-15T11:35:24.066Z,20.94
2018-03-15T11:37:51.676Z,21.05
2018-03-15T11:40:19.266Z,21.42
2018-03-15T11:42:46.914Z,22.18
2018-03-15T11:45:14.754Z,22.48
2018-03-15T11:47:42.329Z,22.86
2018-03-15T11:50:09.947Z,22.70
2018-03-15T11:52:37.589Z,22.93
2018-03-15T11:55:05.202Z,22.80
2018-03-15T11:57:32.790Z,22.29
2018-03-15T12:00:00.663Z,21.23
2018-03-15T12:02:28.358Z,20.27
2018-03-15T12:04:55.937Z,19.40
2018-03-15T12:07:23.539Z,18.84
2018-03-15T12:09:51.636Z,18.84
2018-03-15T12:12:19.589Z,19.68
2018-03-15T12:14:47.161Z,20.76
2018-03-15T12:17:15.003Z,20.88
2018-03-15T12:19:42.811Z,21.22
2018-03-15T12:22:10.595Z,21.68
2018-03-15T12:24:38.462Z,22.25
2018-03-15T12:27:06.210Z,21.87
2018-03-15T12:29:33.896Z,22.00
2018-03-15T12:32:01.692Z,23.02
2018-03-15T12:34:29.522Z,24.02
2018-03-15T12:36:57.336Z,24.38
2018-03-15T12:39:25.233Z,23.27
2018-03-15T12:41:52.860Z,22.55
2018-03-15T12:44:20.417Z,22.02
2018-03-15T12:46:47.982Z,21.21
2018-03-15T12:49:15.731Z,21.00
2018-03-15T12:51:43.549Z,20.40
2018-03-15T12:54:11.115Z,19.64
2018-03-15T12:56:38.688Z,18.97
2018-03-15T12:59:06.254Z,18.58
2018-03-15T13:01:33.847Z,18.37
2018-03-15T13:04:01.641Z,18.10
2018-03-15T13:06:29.204Z,17.95
2018-03-15T13:08:56.864Z,17.93
2018-03-15T13:11:24.440Z,18.01
2018-03-15T13:13:52.209Z,18.49
2018-03-15T13:16:20.031Z,19.72
2018-03-15T13:18:47.586Z,21.09
2018-03-15T13:21:15.364Z,22.17
2018-03-15T13:23:42.939Z,23.06
2018-03-15T13:26:10.552Z,23.30
2018-03-15T13:28:38.103Z,23.78
2018-03-15T13:31:05.836Z,24.00
2018-03-15T13:33:33.653Z,24.12
2018-03-15T13:36:01.265Z,24.89
2018-03-15T13:38:28.990Z,25.29
2018-03-15T13:40:56.599Z,24.62
2018-03-15T13:43:24.207Z,24.46
2018-03-15T13:45:51.917Z,24.02
2018-03-15T13:48:19.473Z,23.06
2018-03-15T13:50:47.285Z,22.23
2018-03-15T13:53:14.890Z,21.52
2018-03-15T13:55:42.470Z,21.56
2018-03-15T13:58:10.052Z,21.23
2018-03-15T14:00:37.641Z,20.90
2018-03-15T14:03:05.330Z,20.71
2018-03-15T14:05:32.888Z,20.64
2018-03-15T14:08:00.708Z,21.03
2018-03-15T14:10:28.259Z,21.92
2018-03-15T14:12:56.043Z,22.18
2018-03-15T14:15:23.767Z,22.39
2018-03-15T14:17:51.327Z,22.01
2018-03-15T14:20:19.097Z,21.47
2018-03-15T14:22:46.694Z,20.87
2018-03-15T14:25:14.318Z,20.51
2018-03-15T14:27:41.879Z,20.65
2018-03-15T14:30:09.453Z,20.66
2018-03-15T14:32:37.010Z,21.23
2018-03-15T14:35:04.569Z,21.84
2018-03-15T14:37:32.128Z,22.45
2018-03-15T14:39:59.677Z,22.01
2018-03-15T14:42:27.334Z,21.28
2018-03-15T14:44:54.886Z,20.26
2018-03-15T14:47:22.693Z,19.84
2018-03-15T14:49:50.254Z,19.25
2018-03-15T14:52:18.029Z,18.88
2018-03-15T14:54:45.712Z,18.45
2018-03-15T14:57:13.431Z,18.13
2018-03-15T14:59:41.019Z,18.09
2018-03-15T15:02:08.601Z,18.05
2018-03-15T15:04:36.170Z,18.08
2018-03-15T15:07:03.896Z,18.04
2018-03-15T15:09:31.471Z,17.94
2018-03-15T15:11:59.046Z,18.32
2018-03-15T15:14:26.633Z,19.08
2018-03-15T15:16:54.205Z,19.63
2018-03-15T15:19:22.027Z,20.32
2018-03-15T15:21:49.593Z,20.63
2018-03-15T15:24:17.154Z,20.58
2018-03-15T15:26:44.735Z,21.00
2018-03-15T15:29:12.294Z,21.12
2018-03-15T15:31:40.018Z,21.21
2018-03-15T15:34:07.628Z,20.50
2018-03-15T15:36:35.243Z,19.74
2018-03-15T15:39:03.071Z,19.08
2018-03-15T15:41:30.680Z,18.72
2018-03-15T15:43:58.278Z,18.29
2018-03-15T15:46:25.886Z,17.96
2018-03-15T15:48:53.462Z,17.52
2018-03-15T15:51:21.028Z,17.06
2018-03-15T15:53:48.669Z,16.56
2018-03-15T15:56:16.394Z,16.19
2018-03-15T15:58:43.975Z,15.87
2018-03-15T16:01:11.556Z,15.52
2018-03-15T16:03:39.140Z,15.35
2018-03-15T16:06:07.020Z,15.20
2018-03-15T16:08:34.606Z,15.09
2018-03-15T16:11:02.435Z,14.98
2018-03-15T16:13:30.223Z,14.88
2018-03-15T16:15:58.042Z,14.76
2018-03-15T16:18:25.862Z,14.66
2018-03-15T16:20:53.440Z,14.61
2018-03-15T16:23:21.165Z,14.52
2018-03-15T16:25:48.929Z,14.46
2018-03-15T16:28:16.736Z,14.37
2018-03-15T16:30:44.300Z,14.32
2018-03-15T16:33:11.986Z,14.29
2018-03-15T16:35:39.572Z,14.28
2018-03-15T16:38:07.142Z,14.24
2018-03-15T16:40:34.905Z,14.17
2018-03-15T16:43:02.528Z,14.12
2018-03-15T16:45:30.106Z,14.10
2018-03-15T16:47:57.683Z,14.11
2018-03-15T16:50:25.496Z,14.06
2018-03-15T16:52:53.231Z,13.95
2018-03-15T16:55:20.802Z,13.81
2018-03-15T16:57:48.522Z,13.69
2018-03-15T17:00:16.111Z,13.52
2018-03-15T17:02:43.690Z,13.38
2018-03-15T17:05:11.388Z,13.34
2018-03-15T17:07:38.982Z,13.33
2018-03-15T17:10:06.624Z,13.29
2018-03-15T17:12:34.190Z,13.24
2018-03-15T17:15:01.802Z,13.21
2018-03-15T17:17:29.374Z,13.12
2018-03-15T17:19:56.963Z,13.03
2018-03-15T17:22:24.713Z,12.97
2018-03-15T17:24:52.501Z,12.95
2018-03-15T17:27:20.150Z,13.01
2018-03-15T17:29:47.865Z,13.06
2018-03-15T17:32:15.493Z,13.11
2018-03-15T17:34:43.211Z,13.12
2018-03-15T17:37:10.787Z,13.15
2018-03-15T17:39:38.353Z,13.16
2018-03-15T17:42:06.182Z,13.16
2018-03-15T17:44:33.782Z,13.09
2018-03-15T17:47:01.611Z,13.05
2018-03-15T17:49:29.220Z,12.97
2018-03-15T17:51:56.818Z,12.91
2018-03-15T17:54:24.528Z,12.93
2018-03-15T17:56:52.245Z,12.90
2018-03-15T17:59:19.814Z,12.88
2018-03-15T18:01:47.510Z,12.92
2018-03-15T18:04:15.337Z,12.91
2018-03-15T18:06:42.927Z,12.94
2018-03-15T18:09:10.506Z,12.95
2018-03-15T18:11:38.085Z,12.96
2018-03-15T18:14:05.909Z,12.91
2018-03-15T18:16:33.735Z,12.87
2018-03-15T18:19:01.546Z,12.82
2018-03-15T18:21:29.122Z,12.77
2018-03-15T18:23:56.722Z,12.64
2018-03-15T18:26:24.294Z,12.61
2018-03-15T18:28:51.898Z,12.61
2018-03-15T18:31:19.602Z,12.41
2018-03-15T18:33:47.185Z,12.24
2018-03-15T18:36:14.977Z,12.26
2018-03-15T18:38:42.791Z,12.26
2018-03-15T18:41:10.404Z,12.17
2018-03-15T18:43:37.981Z,12.06
2018-03-15T18:46:05.727Z,12.06
2018-03-15T18:48:33.304Z,11.97
2018-03-15T18:51:01.159Z,11.94
2018-03-15T18:53:28.734Z,11.93
2018-03-15T18:55:56.521Z,11.87
2018-03-15T18:58:24.336Z,11.85
2018-03-15T19:00:51.910Z,11.73
2018-03-15T19:03:19.486Z,11.74
2018-03-15T19:05:47.281Z,11.70
2018-03-15T19:08:15.111Z,11.65
2018-03-15T19:10:42.703Z,11.59
2018-03-15T19:13:10.452Z,11.67
2018-03-15T19:15:38.264Z,11.69
2018-03-15T19:18:05.840Z,11.76
2018-03-15T19:20:33.585Z,11.76
2018-03-15T19:23:01.300Z,11.69
2018-03-15T19:25:28.922Z,11.66
2018-03-15T19:27:56.632Z,11.62
2018-03-15T19:30:24.199Z,11.56
2018-03-15T19:32:51.885Z,11.50
2018-03-15T19:35:19.455Z,11.57
2018-03-15T19:37:47.090Z,11.56
2018-03-15T19:40:14.845Z,11.51
2018-03-15T19:42:42.486Z,11.47
2018-03-15T19:45:10.337Z,11.49
2018-03-15T19:47:37.898Z,11.46
2018-03-15T19:50:05.639Z,11.43
2018-03-15T19:52:33.321Z,11.37
2018-03-15T19:55:01.145Z,11.21
2018-03-15T19:57:28.727Z,11.04
2018-03-15T19:59:56.491Z,10.94
2018-03-15T20:02:24.140Z,10.78
2018-03-15T20:04:51.927Z,10.79
2018-03-15T20:07:19.581Z,10.86
2018-03-15T20:09:47.154Z,10.86
2018-03-15T20:12:14.814Z,10.89
2018-03-15T20:14:42.384Z,10.93
2018-03-15T20:17:09.982Z,10.91
2018-03-15T20:19:37.554Z,10.95
2018-03-15T20:22:05.127Z,10.99
2018-03-15T20:24:32.938Z,10.99
2018-03-15T20:27:00.689Z,11.03
2018-03-15T20:29:28.507Z,10.98
2018-03-15T20:31:56.091Z,10.94
2018-03-15T20:34:23.835Z,10.91
2018-03-15T20:36:51.407Z,10.88
2018-03-15T20:39:24.406Z,10.88
2018-03-15T20:41:52.221Z,10.82
2018-03-15T20:44:19.785Z,10.83
2018-03-15T20:46:53.175Z,10.81
2018-03-15T20:49:20.764Z,10.75
2018-03-15T20:51:48.365Z,10.67
2018-03-15T20:54:15.938Z,10.60
2018-03-15T20:56:43.578Z,10.54
2018-03-15T20:59:11.342Z,10.53
2018-03-15T21:01:38.914Z,10.51
2018-03-15T21:04:06.541Z,10.47
2018-03-15T21:06:34.246Z,10.33
2018-03-15T21:09:02.040Z,10.36
2018-03-15T21:11:29.618Z,10.29
2018-03-15T21:13:57.246Z,10.22
2018-03-15T21:16:24.818Z,10.15
2018-03-15T21:18:52.381Z,10.09
2018-03-15T21:21:19.966Z,10.08
2018-03-15T21:23:47.526Z,10.12
2018-03-15T21:26:15.118Z,10.08
2018-03-15T21:28:42.794Z,10.06
2018-03-15T21:31:10.423Z,10.07
2018-03-15T21:33:37.982Z,10.07
2018-03-15T21:36:05.714Z,10.11
2018-03-15T21:38:33.294Z,10.07
2018-03-15T21:41:01.068Z,10.03
2018-03-15T21:43:28.659Z,9.89
2018-03-15T21:45:56.380Z,9.83
2018-03-15T21:48:24.108Z,9.74
2018-03-15T21:50:51.670Z,9.67
2018-03-15T21:53:19.247Z,9.68
2018-03-15T21:55:46.834Z,9.65
2018-03-15T21:58:14.394Z,9.59
2018-03-15T22:00:41.997Z,9.57
2018-03-15T22:03:09.561Z,9.56
2018-03-15T22:05:37.125Z,9.50
2018-03-15T22:08:04.694Z,9.46
2018-03-15T22:10:32.253Z,9.51
2018-03-15T22:13:00.101Z,9.50
2018-03-15T22:15:27.669Z,9.53
2018-03-15T22:17:55.439Z,9.46
2018-03-15T22:20:23.022Z,9.45
2018-03-15T22:22:50.773Z,9.34
2018-03-15T22:25:18.342Z,9.27
2018-03-15T22:27:45.905Z,9.24
2018-03-15T22:30:13.626Z,9.23
2018-03-15T22:32:41.446Z,9.12
2018-03-15T22:35:09.100Z,9.06
2018-03-15T22:37:36.682Z,9.05
2018-03-15T22:40:04.288Z,8.97
2018-03-15T22:42:31.982Z,8.93
2018-03-15T22:44:59.835Z,8.87
2018-03-15T22:47:27.407Z,8.92
2018-03-15T22:49:54.970Z,8.89
2018-03-15T22:52:22.559Z,8.90
2018-03-15T22:54:50.292Z,8.92
2018-03-15T22:57:17.845Z,8.88
2018-03-15T22:59:45.414Z,8.88
2018-03-15T23:02:12.981Z,8.89
2018-03-15T23:04:40.664Z,8.90
2018-03-15T23:07:08.222Z,8.94
2018-03-15T23:09:35.782Z,8.98
2018-03-15T23:12:03.354Z,9.02
2018-03-15T23:14:30.921Z,9.05
2018-03-15T23:16:58.718Z,8.98
2018-03-15T23:19:26.259Z,8.92
2018-03-15T23:21:53.850Z,8.85
2018-03-15T23:24:21.623Z,8.80
2018-03-15T23:26:49.339Z,8.80
2018-03-15T23:29:17.159Z,8.80
2018-03-15T23:31:44.713Z,8.79
2018-03-15T23:34:12.292Z,8.82
2018-03-15T23:36:39.872Z,8.86
2018-03-15T23:39:07.439Z,8.89
2018-03-15T23:41:35.293Z,8.87
2018-03-15T23:44:02.861Z,8.87
2018-03-15T23:46:30.433Z,8.87
2018-03-15T23:48:57.994Z,8.76
2018-03-15T23:51:25.820Z,8.71
2018-03-15T23:53:53.387Z,8.70
2018-03-15T23:56:21.125Z,8.72
2018-03-15T23:58:48.844Z,8.76
